createdAt,value
2022-10-29T00:00:15.818Z,9.90
2022-10-29T00:02:42.389Z,11.13
2022-10-29T00:05:09.290Z,11.70
2022-10-29T00:07:35.798Z,11.43
2022-10-29T00:10:02.396Z,10.93
2022-10-29T00:12:28.946Z,11.03
2022-10-29T00:14:55.424Z,10.97
2022-10-29T00:17:21.899Z,9.90
2022-10-29T00:19:48.990Z,10.80
2022-10-29T00:22:15.841Z,10.57
2022-10-29T00:24:42.350Z,10.33
2022-10-29T00:27:08.804Z,10.40
2022-10-29T00:29:35.268Z,11.17
2022-10-29T00:32:01.763Z,9.97
2022-10-29T00:34:29.172Z,10.70
2022-10-29T00:36:55.726Z,10.73
2022-10-29T00:39:22.178Z,9.60
2022-10-29T00:41:48.648Z,9.53
2022-10-29T00:44:15.039Z,10.40
2022-10-29T00:46:44.430Z,9.97
2022-10-29T00:49:11.391Z,9.63
2022-10-29T00:51:38.637Z,9.40
2022-10-29T00:54:08.557Z,10.20
2022-10-29T00:57:01.575Z,10.47
2022-10-29T00:59:28.085Z,10.60
2022-10-29T01:01:55.983Z,10.60
2022-10-29T01:04:23.634Z,11.40
2022-10-29T01:06:50.141Z,9.07
2022-10-29T01:09:16.680Z,11.03
2022-10-29T01:12:20.995Z,9.90
2022-10-29T01:15:01.071Z,9.40
2022-10-29T01:17:40.165Z,9.17
2022-10-29T01:20:12.614Z,9.83
2022-10-29T01:22:39.068Z,10.53
2022-10-29T01:25:41.018Z,9.90
2022-10-29T01:28:36.112Z,9.33
2022-10-29T01:31:15.225Z,10.13
2022-10-29T01:34:12.585Z,9.80
2022-10-29T01:36:48.909Z,9.80
2022-10-29T01:39:41.749Z,9.13
2022-10-29T01:42:11.290Z,9.00
2022-10-29T01:45:02.102Z,9.87
2022-10-29T01:47:32.076Z,9.50
2022-10-29T01:50:03.763Z,9.63
2022-10-29T01:52:32.897Z,10.17
2022-10-29T01:54:59.360Z,9.60
2022-10-29T01:57:25.771Z,9.30
2022-10-29T01:59:56.125Z,10.20
2022-10-29T02:02:48.071Z,10.37
2022-10-29T02:05:27.549Z,9.83
2022-10-29T02:08:29.127Z,9.00
2022-10-29T02:10:58.497Z,9.40
2022-10-29T02:13:31.996Z,9.77
2022-10-29T02:15:58.968Z,10.20
2022-10-29T02:18:25.585Z,11.13
2022-10-29T02:20:52.136Z,10.73
2022-10-29T02:23:18.677Z,10.10
2022-10-29T02:25:45.298Z,11.13
2022-10-29T02:28:11.905Z,10.40
2022-10-29T02:30:38.485Z,10.23
2022-10-29T02:33:04.913Z,9.07
2022-10-29T02:35:31.372Z,10.07
2022-10-29T02:37:57.840Z,9.67
2022-10-29T02:40:24.382Z,10.07
2022-10-29T02:42:50.875Z,9.57
2022-10-29T02:45:17.299Z,9.60
2022-10-29T02:47:43.743Z,9.40
2022-10-29T02:50:10.208Z,8.33
2022-10-29T02:52:36.649Z,10.10
2022-10-29T02:55:03.434Z,10.23
2022-10-29T02:57:29.880Z,9.30
2022-10-29T02:59:56.335Z,9.23
2022-10-29T03:02:22.895Z,10.50
2022-10-29T03:04:49.484Z,9.70
2022-10-29T03:07:15.918Z,9.80
2022-10-29T03:09:42.422Z,9.07
2022-10-29T03:12:08.853Z,9.23
2022-10-29T03:14:35.318Z,10.60
2022-10-29T03:17:01.780Z,8.87
2022-10-29T03:19:29.396Z,10.70
2022-10-29T03:21:55.884Z,9.63
2022-10-29T03:24:22.707Z,8.87
2022-10-29T03:26:49.130Z,9.50
2022-10-29T03:29:15.662Z,9.33
2022-10-29T03:31:42.173Z,10.00
2022-10-29T03:34:08.628Z,9.30
2022-10-29T03:36:35.068Z,9.80
2022-10-29T03:39:01.559Z,9.60
2022-10-29T03:41:28.348Z,9.30
2022-10-29T03:46:22.225Z,10.33
2022-10-29T03:48:51.680Z,9.80
2022-10-29T03:51:18.180Z,9.97
2022-10-29T03:53:44.599Z,10.10
2022-10-29T03:56:11.074Z,9.33
2022-10-29T03:58:37.512Z,9.87
2022-10-29T04:01:05.789Z,10.63
2022-10-29T04:03:33.701Z,9.80
2022-10-29T04:06:01.644Z,9.23
2022-10-29T04:08:28.437Z,9.63
2022-10-29T04:10:54.911Z,9.90
2022-10-29T04:13:21.443Z,9.10
2022-10-29T04:15:47.939Z,9.57
2022-10-29T04:18:14.517Z,9.13
2022-10-29T04:22:10.263Z,8.33
2022-10-29T04:29:02.490Z,9.13
2022-10-29T04:31:28.927Z,9.30
2022-10-29T04:33:55.384Z,9.97
2022-10-29T04:36:21.864Z,9.40
2022-10-29T04:38:48.295Z,9.07
2022-10-29T04:41:14.725Z,10.27
2022-10-29T04:43:41.187Z,9.97
2022-10-29T04:46:09.797Z,11.73
2022-10-29T04:48:36.731Z,10.50
2022-10-29T04:51:03.469Z,9.40
2022-10-29T04:53:30.133Z,11.10
2022-10-29T04:56:01.367Z,9.60
2022-10-29T04:58:28.368Z,8.83
2022-10-29T05:01:01.150Z,9.60
2022-10-29T05:03:27.862Z,10.13
2022-10-29T05:05:54.335Z,9.80
2022-10-29T05:08:21.517Z,10.40
2022-10-29T05:10:47.970Z,12.70
2022-10-29T05:13:14.566Z,9.90
2022-10-29T05:15:41.670Z,10.17
2022-10-29T05:18:09.332Z,10.77
2022-10-29T05:20:35.858Z,11.27
2022-10-29T05:23:06.890Z,11.37
2022-10-29T05:25:37.732Z,12.53
2022-10-29T05:28:05.464Z,12.40
2022-10-29T05:30:33.166Z,12.30
2022-10-29T05:33:00.094Z,13.67
2022-10-29T05:35:27.269Z,13.50
2022-10-29T05:37:54.601Z,11.60
2022-10-29T05:40:22.020Z,13.17
2022-10-29T05:42:48.849Z,13.77
2022-10-29T05:45:15.755Z,11.07
2022-10-29T05:47:42.430Z,11.87
2022-10-29T05:50:09.735Z,12.60
2022-10-29T05:52:36.434Z,11.30
2022-10-29T05:55:03.158Z,10.50
2022-10-29T05:57:32.462Z,9.30
2022-10-29T05:59:59.097Z,9.70
2022-10-29T06:02:25.796Z,11.30
2022-10-29T06:04:52.434Z,10.70
2022-10-29T06:07:18.986Z,11.13
2022-10-29T06:09:45.465Z,9.80
2022-10-29T06:12:11.872Z,9.87
2022-10-29T06:14:38.336Z,11.47
2022-10-29T06:17:04.796Z,10.60
2022-10-29T06:19:31.494Z,13.40
2022-10-29T06:22:00.402Z,13.47
2022-10-29T06:24:27.585Z,12.73
2022-10-29T06:26:54.556Z,10.07
2022-10-29T06:29:21.214Z,10.13
2022-10-29T06:31:47.778Z,10.63
2022-10-29T06:34:14.904Z,11.20
2022-10-29T06:36:41.540Z,11.40
2022-10-29T06:39:07.991Z,9.70
2022-10-29T06:41:34.492Z,10.60
2022-10-29T06:44:01.023Z,10.03
2022-10-29T06:46:27.511Z,9.80
2022-10-29T06:48:54.028Z,11.20
2022-10-29T06:51:20.511Z,10.90
2022-10-29T06:53:46.934Z,10.37
2022-10-29T06:56:13.395Z,10.97
2022-10-29T06:58:39.945Z,10.77
2022-10-29T07:01:06.462Z,10.77
2022-10-29T07:03:33.004Z,9.60
2022-10-29T07:06:00.044Z,11.60
2022-10-29T07:08:26.870Z,11.20
2022-10-29T07:10:54.526Z,11.77
2022-10-29T07:13:20.971Z,10.40
2022-10-29T07:15:47.419Z,9.90
2022-10-29T07:18:13.895Z,10.47
2022-10-29T07:20:42.754Z,10.07
2022-10-29T07:23:10.292Z,9.40
2022-10-29T07:25:37.566Z,9.93
2022-10-29T07:28:13.496Z,10.10
2022-10-29T07:30:40.798Z,9.83
2022-10-29T07:33:07.265Z,10.57
2022-10-29T07:35:34.779Z,9.77
2022-10-29T07:38:07.131Z,10.67
2022-10-29T07:40:38.051Z,9.37
2022-10-29T07:43:04.564Z,9.47
2022-10-29T07:45:31.034Z,10.07
2022-10-29T07:48:07.489Z,10.03
2022-10-29T07:50:34.154Z,9.47
2022-10-29T07:53:01.416Z,8.57
2022-10-29T07:57:58.900Z,10.27
2022-10-29T08:00:25.982Z,9.77
2022-10-29T08:02:54.330Z,11.40
2022-10-29T08:05:21.545Z,11.63
2022-10-29T08:07:47.988Z,10.03
2022-10-29T08:10:14.656Z,9.80
2022-10-29T08:12:41.108Z,8.80
2022-10-29T08:15:08.323Z,9.17
2022-10-29T08:17:34.785Z,9.07
2022-10-29T08:20:01.206Z,8.87
2022-10-29T08:22:30.531Z,9.03
2022-10-29T08:24:57.471Z,8.80
2022-10-29T08:27:24.029Z,7.33
2022-10-29T08:29:50.471Z,9.77
2022-10-29T08:32:16.923Z,8.80
2022-10-29T08:34:43.438Z,9.07
2022-10-29T08:37:09.871Z,9.20
2022-10-29T08:39:36.350Z,9.90
2022-10-29T08:42:33.793Z,8.67
2022-10-29T08:45:09.143Z,9.07
2022-10-29T08:48:07.386Z,7.60
2022-10-29T08:50:41.024Z,8.20
2022-10-29T08:53:24.428Z,8.27
2022-10-29T08:55:52.359Z,7.87
2022-10-29T08:58:30.925Z,7.30
2022-10-29T09:00:58.451Z,8.83
2022-10-29T09:03:27.243Z,7.10
2022-10-29T09:06:15.948Z,7.87
2022-10-29T09:09:17.423Z,8.20
2022-10-29T09:12:07.132Z,7.60
2022-10-29T09:14:59.980Z,7.60
2022-10-29T09:17:54.677Z,8.40
2022-10-29T09:20:50.977Z,7.10
2022-10-29T09:23:23.553Z,7.97
2022-10-29T09:26:05.481Z,6.50
2022-10-29T09:28:48.568Z,6.40
2022-10-29T09:31:34.746Z,8.10
2022-10-29T09:34:19.813Z,6.70
2022-10-29T09:36:47.858Z,6.20
2022-10-29T09:39:18.815Z,6.77
2022-10-29T09:41:48.654Z,5.77
2022-10-29T09:44:34.595Z,7.00
2022-10-29T09:47:21.029Z,7.40
2022-10-29T09:50:08.352Z,6.57
2022-10-29T09:52:37.355Z,6.13
2022-10-29T09:55:06.031Z,6.77
2022-10-29T09:57:34.770Z,6.93
2022-10-29T10:00:05.398Z,6.00
2022-10-29T10:02:55.414Z,6.07
2022-10-29T10:05:31.211Z,8.30
2022-10-29T10:08:11.234Z,6.30
2022-10-29T10:11:04.887Z,5.60
2022-10-29T10:13:36.755Z,5.90
2022-10-29T10:16:05.805Z,5.10
2022-10-29T10:18:32.262Z,4.73
2022-10-29T10:21:11.051Z,6.73
2022-10-29T10:23:54.274Z,5.40
2022-10-29T10:26:50.154Z,5.50
2022-10-29T10:29:23.577Z,5.40
2022-10-29T10:31:50.663Z,5.33
2022-10-29T10:34:36.362Z,9.87
2022-10-29T10:37:13.807Z,5.20
2022-10-29T10:39:42.574Z,5.27
2022-10-29T10:42:39.535Z,5.20
2022-10-29T10:45:14.536Z,5.20
2022-10-29T10:47:47.494Z,4.97
2022-10-29T10:50:17.193Z,5.57
2022-10-29T10:52:45.090Z,4.93
2022-10-29T10:55:24.185Z,4.97
2022-10-29T10:58:15.096Z,4.53
2022-10-29T11:00:49.453Z,5.07
2022-10-29T11:06:04.323Z,5.83
2022-10-29T11:08:36.219Z,5.30
2022-10-29T11:11:08.556Z,5.57
2022-10-29T11:13:35.355Z,5.53
2022-10-29T11:16:07.916Z,5.70
2022-10-29T11:19:05.501Z,5.80
2022-10-29T11:21:39.437Z,6.70
2022-10-29T11:24:18.189Z,5.97
2022-10-29T11:26:48.775Z,5.30
2022-10-29T11:29:39.605Z,4.87
2022-10-29T11:32:15.237Z,4.77
2022-10-29T11:34:46.803Z,5.03
2022-10-29T11:37:21.365Z,5.63
2022-10-29T11:39:50.532Z,4.73
2022-10-29T11:42:17.013Z,4.90
2022-10-29T11:44:43.525Z,4.63
2022-10-29T11:47:27.237Z,5.40
2022-10-29T11:50:06.332Z,5.43
2022-10-29T11:52:56.159Z,5.87
2022-10-29T11:55:40.919Z,5.53
2022-10-29T11:58:16.699Z,5.50
2022-10-29T12:01:10.626Z,4.30
2022-10-29T12:03:46.368Z,5.70
2022-10-29T12:06:19.792Z,5.50
2022-10-29T12:09:04.471Z,6.70
2022-10-29T12:11:43.140Z,4.93
2022-10-29T12:14:29.806Z,6.17
2022-10-29T12:17:03.596Z,5.40
2022-10-29T12:19:47.209Z,5.47
2022-10-29T12:22:22.713Z,6.30
2022-10-29T12:24:58.047Z,5.30
2022-10-29T12:27:40.898Z,5.53
2022-10-29T12:30:09.566Z,4.47
2022-10-29T12:33:06.377Z,4.67
2022-10-29T12:35:57.467Z,6.47
2022-10-29T12:38:37.464Z,4.63
2022-10-29T12:41:26.685Z,5.17
2022-10-29T12:44:00.865Z,5.50
2022-10-29T12:46:39.574Z,4.77
2022-10-29T12:49:15.749Z,4.70
2022-10-29T12:54:40.956Z,4.70
2022-10-29T12:57:13.574Z,5.20
2022-10-29T12:59:44.112Z,5.40
2022-10-29T13:02:26.761Z,4.30
2022-10-29T13:05:11.406Z,5.50
2022-10-29T13:07:58.320Z,5.67
2022-10-29T13:10:31.232Z,4.80
2022-10-29T13:13:02.198Z,5.17
2022-10-29T13:16:01.931Z,5.70
2022-10-29T13:18:44.391Z,5.07
2022-10-29T13:21:11.071Z,5.20
2022-10-29T13:23:37.901Z,4.57
2022-10-29T13:26:06.393Z,5.20
2022-10-29T13:28:35.929Z,3.90
2022-10-29T13:31:08.417Z,4.20
2022-10-29T13:33:38.021Z,5.03
2022-10-29T13:36:04.630Z,4.23
2022-10-29T13:38:58.004Z,5.10
2022-10-29T13:41:42.556Z,5.30
2022-10-29T13:44:23.681Z,5.10
2022-10-29T13:46:53.916Z,4.43
2022-10-29T13:49:24.792Z,5.77
2022-10-29T13:52:14.838Z,5.10
2022-10-29T13:54:47.448Z,4.77
2022-10-29T13:57:30.110Z,4.70
2022-10-29T14:00:01.907Z,5.30
2022-10-29T14:02:40.458Z,4.60
2022-10-29T14:05:21.733Z,4.67
2022-10-29T14:08:06.345Z,4.60
2022-10-29T14:10:41.934Z,4.33
2022-10-29T14:13:19.195Z,5.17
2022-10-29T14:16:01.837Z,4.50
2022-10-29T14:18:28.958Z,4.10
2022-10-29T14:21:00.560Z,4.53
2022-10-29T14:23:28.309Z,4.83
2022-10-29T14:25:56.792Z,4.57
2022-10-29T14:28:31.057Z,4.87
2022-10-29T14:31:28.064Z,4.80
2022-10-29T14:33:57.299Z,4.27
2022-10-29T14:36:39.843Z,4.70
2022-10-29T14:39:09.742Z,4.83
2022-10-29T14:41:38.337Z,4.53
2022-10-29T14:44:24.029Z,4.07
2022-10-29T14:46:58.121Z,4.10
2022-10-29T14:49:25.684Z,4.57
2022-10-29T14:51:58.539Z,5.00
2022-10-29T14:54:27.105Z,4.30
2022-10-29T14:57:06.747Z,3.80
2022-10-29T14:59:34.237Z,5.03
2022-10-29T15:02:17.428Z,4.27
2022-10-29T15:04:56.917Z,9.77
2022-10-29T15:07:23.515Z,9.50
2022-10-29T15:10:10.914Z,8.47
2022-10-29T15:12:39.387Z,7.80
2022-10-29T15:15:25.919Z,6.93
2022-10-29T15:17:58.670Z,5.70
2022-10-29T15:23:59.790Z,5.87
2022-10-29T15:26:26.984Z,5.13
2022-10-29T15:28:54.921Z,5.87
2022-10-29T15:31:24.274Z,6.60
2022-10-29T15:33:52.143Z,5.00
2022-10-29T15:36:18.671Z,5.70
2022-10-29T15:38:52.238Z,5.83
2022-10-29T15:41:44.111Z,5.93
2022-10-29T15:44:27.877Z,5.50
2022-10-29T15:46:58.870Z,5.87
2022-10-29T15:49:31.415Z,5.70
2022-10-29T15:52:00.596Z,6.50
2022-10-29T15:54:27.903Z,6.13
2022-10-29T15:56:54.536Z,5.03
2022-10-29T15:59:23.997Z,6.30
2022-10-29T16:01:50.568Z,6.70
2022-10-29T16:04:17.084Z,6.20
2022-10-29T16:06:43.595Z,5.67
2022-10-29T16:09:16.725Z,4.97
2022-10-29T16:11:43.223Z,6.00
2022-10-29T16:14:10.048Z,5.83
2022-10-29T16:16:37.654Z,5.93
2022-10-29T16:19:04.173Z,7.90
2022-10-29T16:21:30.808Z,10.63
2022-10-29T16:23:57.258Z,8.10
2022-10-29T16:26:25.070Z,10.43
2022-10-29T16:28:53.249Z,8.00
2022-10-29T16:31:29.096Z,6.90
2022-10-29T16:33:59.569Z,9.90
2022-10-29T16:36:26.099Z,9.20
2022-10-29T16:38:52.681Z,6.13
2022-10-29T16:41:19.881Z,5.93
2022-10-29T16:43:46.969Z,5.90
2022-10-29T16:46:14.059Z,5.10
2022-10-29T16:48:40.853Z,6.30
2022-10-29T16:51:07.799Z,5.30
2022-10-29T16:53:34.786Z,5.37
2022-10-29T16:56:01.624Z,5.47
2022-10-29T16:58:28.112Z,5.33
2022-10-29T17:01:05.369Z,5.50
2022-10-29T17:03:33.113Z,5.50
2022-10-29T17:06:07.794Z,5.33
2022-10-29T17:08:35.198Z,7.20
2022-10-29T17:11:02.773Z,7.93
2022-10-29T17:13:29.367Z,11.03
2022-10-29T17:15:56.022Z,10.67
2022-10-29T17:18:24.171Z,10.20
2022-10-29T17:20:57.806Z,6.30
2022-10-29T17:23:24.474Z,7.10
2022-10-29T17:25:52.917Z,5.93
2022-10-29T17:28:19.774Z,6.50
2022-10-29T17:30:46.673Z,6.47
2022-10-29T17:33:13.299Z,7.00
2022-10-29T17:35:39.946Z,5.33
2022-10-29T17:38:06.461Z,4.93
2022-10-29T17:40:32.922Z,4.90
2022-10-29T17:42:59.844Z,8.73
2022-10-29T17:45:26.473Z,6.80
2022-10-29T17:47:57.378Z,6.27
2022-10-29T17:50:25.294Z,9.03
2022-10-29T17:52:53.206Z,7.70
2022-10-29T17:55:19.890Z,6.70
2022-10-29T17:57:46.383Z,8.60
2022-10-29T18:00:13.458Z,10.40
2022-10-29T18:02:40.011Z,7.03
2022-10-29T18:05:07.445Z,6.00
2022-10-29T18:07:34.265Z,5.40
2022-10-29T18:10:00.732Z,5.70
2022-10-29T18:12:27.184Z,5.00
2022-10-29T18:14:53.695Z,5.77
2022-10-29T18:17:20.203Z,5.00
2022-10-29T18:19:46.765Z,5.37
2022-10-29T18:22:13.290Z,5.37
2022-10-29T18:24:39.842Z,6.03
2022-10-29T18:27:06.299Z,5.20
2022-10-29T18:29:32.829Z,5.87
2022-10-29T18:31:59.274Z,6.53
2022-10-29T18:34:25.756Z,5.63
2022-10-29T18:36:52.180Z,4.80
2022-10-29T18:39:18.663Z,6.23
2022-10-29T18:41:45.136Z,7.23
2022-10-29T18:44:11.662Z,6.33
2022-10-29T18:46:38.147Z,5.63
2022-10-29T18:49:04.607Z,6.30
2022-10-29T18:51:32.689Z,5.63
2022-10-29T18:53:59.640Z,5.90
2022-10-29T18:56:27.235Z,6.23
2022-10-29T18:58:55.600Z,9.43
2022-10-29T19:01:27.805Z,7.47
2022-10-29T19:03:56.449Z,9.60
2022-10-29T19:06:24.701Z,7.93
2022-10-29T19:08:51.684Z,6.77
2022-10-29T19:11:23.756Z,7.27
2022-10-29T19:13:51.453Z,6.67
2022-10-29T19:16:18.439Z,6.50
2022-10-29T19:18:45.061Z,5.90
2022-10-29T19:21:14.048Z,6.93
2022-10-29T19:23:40.648Z,5.30
2022-10-29T19:26:15.753Z,5.93
2022-10-29T19:28:44.101Z,4.87
2022-10-29T19:31:19.447Z,5.03
2022-10-29T19:33:50.283Z,5.33
2022-10-29T19:36:17.503Z,5.07
2022-10-29T19:38:44.206Z,5.90
2022-10-29T19:41:12.274Z,5.03
2022-10-29T19:43:39.229Z,9.80
2022-10-29T19:46:12.374Z,6.00
2022-10-29T19:48:39.382Z,5.60
2022-10-29T19:51:06.313Z,6.00
2022-10-29T19:53:33.464Z,5.67
2022-10-29T19:55:59.927Z,6.00
2022-10-29T19:58:27.597Z,6.00
2022-10-29T20:00:54.814Z,5.70
2022-10-29T20:03:21.540Z,5.90
2022-10-29T20:05:48.815Z,5.13
2022-10-29T20:08:16.298Z,4.80
2022-10-29T20:10:43.422Z,5.80
2022-10-29T20:13:09.942Z,5.00
2022-10-29T20:15:38.587Z,6.10
2022-10-29T20:18:05.471Z,5.60
2022-10-29T20:20:31.977Z,5.30
2022-10-29T20:23:00.058Z,6.07
2022-10-29T20:25:27.376Z,5.50
2022-10-29T20:27:53.926Z,5.63
2022-10-29T20:30:20.510Z,4.80
2022-10-29T20:32:48.417Z,4.80
2022-10-29T20:35:15.317Z,5.23
2022-10-29T20:37:41.777Z,9.40
2022-10-29T20:40:09.065Z,7.70
2022-10-29T20:42:49.408Z,4.97
2022-10-29T20:45:17.370Z,4.80
2022-10-29T20:47:43.828Z,4.90
2022-10-29T20:50:10.336Z,5.23
2022-10-29T20:53:17.592Z,4.60
2022-10-29T20:55:44.065Z,4.70
2022-10-29T20:58:29.399Z,5.17
2022-10-29T21:00:55.926Z,5.50
2022-10-29T21:03:22.495Z,5.00
2022-10-29T21:05:48.969Z,5.53
2022-10-29T21:08:15.613Z,5.40
2022-10-29T21:10:42.126Z,5.20
2022-10-29T21:13:08.682Z,8.83
2022-10-29T21:15:36.215Z,7.80
2022-10-29T21:18:02.740Z,6.00
2022-10-29T21:20:29.253Z,5.17
2022-10-29T21:22:55.963Z,4.93
2022-10-29T21:25:22.586Z,5.30
2022-10-29T21:27:49.070Z,4.80
2022-10-29T21:30:15.924Z,5.50
2022-10-29T21:32:42.569Z,5.07
2022-10-29T21:35:09.218Z,5.37
2022-10-29T21:37:35.662Z,5.33
2022-10-29T21:40:05.976Z,6.97
2022-10-29T21:42:33.063Z,5.23
2022-10-29T21:44:59.564Z,6.37
2022-10-29T21:47:26.041Z,8.57
2022-10-29T21:49:52.680Z,6.87
2022-10-29T21:52:19.154Z,7.00
2022-10-29T21:54:45.664Z,6.20
2022-10-29T21:57:12.165Z,5.47
2022-10-29T21:59:38.686Z,5.27
2022-10-29T22:02:05.282Z,5.27
2022-10-29T22:04:31.838Z,5.60
2022-10-29T22:06:58.791Z,5.27
2022-10-29T22:09:25.317Z,5.10
2022-10-29T22:11:51.822Z,5.20
2022-10-29T22:14:18.289Z,4.60
2022-10-29T22:16:44.798Z,5.13
2022-10-29T22:19:11.259Z,4.97
2022-10-29T22:21:37.814Z,4.23
2022-10-29T22:24:04.948Z,4.70
2022-10-29T22:26:31.599Z,5.00
2022-10-29T22:28:58.082Z,5.63
2022-10-29T22:31:24.698Z,5.57
2022-10-29T22:33:51.729Z,5.90
2022-10-29T22:36:24.308Z,5.40
2022-10-29T22:38:54.990Z,5.10
2022-10-29T22:41:21.938Z,5.30
2022-10-29T22:43:48.444Z,5.60
2022-10-29T22:46:18.849Z,4.90
2022-10-29T22:48:45.709Z,4.70
2022-10-29T22:51:17.772Z,5.17
2022-10-29T22:53:45.014Z,5.83
2022-10-29T22:56:21.367Z,4.77
2022-10-29T22:58:48.597Z,5.00
2022-10-29T23:01:17.470Z,5.27
2022-10-29T23:03:44.505Z,5.40
2022-10-29T23:06:14.057Z,5.10
2022-10-29T23:08:40.648Z,6.37
2022-10-29T23:11:19.354Z,5.13
2022-10-29T23:13:52.066Z,5.43
2022-10-29T23:16:18.895Z,5.60
2022-10-29T23:18:53.017Z,5.70
2022-10-29T23:21:20.172Z,5.10
2022-10-29T23:23:49.710Z,5.87
2022-10-29T23:26:19.798Z,5.30
2022-10-29T23:28:47.250Z,5.70
2022-10-29T23:31:15.948Z,5.27
2022-10-29T23:33:46.936Z,6.70
2022-10-29T23:36:14.210Z,5.70
2022-10-29T23:38:40.833Z,5.57
2022-10-29T23:41:07.742Z,5.30
2022-10-29T23:43:34.455Z,5.40
2022-10-29T23:46:00.911Z,5.97
2022-10-29T23:48:29.955Z,6.00
2022-10-29T23:50:56.665Z,5.53
2022-10-29T23:53:24.164Z,6.00
2022-10-29T23:55:50.708Z,5.23
2022-10-29T23:58:17.155Z,5.93
